createdAt,value
2023-03-26T00:02:29.847Z,55.20
2023-03-26T00:05:32.432Z,55.00
2023-03-26T00:08:36.028Z,55.67
2023-03-26T00:11:38.438Z,55.49
2023-03-26T00:14:41.479Z,55.17
2023-03-26T00:17:46.457Z,55.13
2023-03-26T00:20:48.894Z,55.59
2023-03-26T00:23:53.656Z,55.31
2023-03-26T00:26:55.997Z,55.71
2023-03-26T00:29:59.801Z,55.23
2023-03-26T00:33:02.799Z,55.40
2023-03-26T00:36:09.886Z,55.56
2023-03-26T00:39:14.161Z,55.38
2023-03-26T00:42:16.541Z,55.38
2023-03-26T00:45:21.412Z,55.63
2023-03-26T00:48:34.325Z,55.56
2023-03-26T00:51:44.460Z,55.11
2023-03-26T00:54:48.387Z,55.20
2023-03-26T00:57:50.882Z,55.83
2023-03-26T01:00:59.087Z,55.46
2023-03-26T01:04:27.562Z,55.52
2023-03-26T01:07:31.518Z,55.25
2023-03-26T01:10:38.732Z,55.69
2023-03-26T01:13:45.127Z,55.57
2023-03-26T01:16:52.316Z,55.57
2023-03-26T01:20:19.938Z,55.43
2023-03-26T01:23:24.050Z,55.46
2023-03-26T01:27:00.982Z,55.86
2023-03-26T01:30:11.076Z,55.34
2023-03-26T01:33:44.090Z,55.63
2023-03-26T01:37:13.377Z,55.69
2023-03-26T01:40:26.743Z,55.76
2023-03-26T01:43:51.323Z,55.99
2023-03-26T01:46:54.108Z,55.84
2023-03-26T01:49:56.564Z,56.03
2023-03-26T01:52:58.995Z,55.87
2023-03-26T01:56:16.656Z,55.67
2023-03-26T01:59:53.774Z,55.81
2023-03-26T02:03:20.029Z,56.06
2023-03-26T02:06:31.856Z,55.90
2023-03-26T02:09:40.134Z,56.05
2023-03-26T02:12:43.516Z,55.97
2023-03-26T02:16:03.567Z,56.37
2023-03-26T02:19:10.116Z,56.14
2023-03-26T02:22:15.711Z,56.08
2023-03-26T02:25:21.261Z,56.33
2023-03-26T02:28:25.860Z,56.46
2023-03-26T02:31:28.447Z,56.21
2023-03-26T02:34:31.379Z,56.08
2023-03-26T02:37:36.568Z,56.45
2023-03-26T02:40:47.927Z,56.52
2023-03-26T02:43:50.526Z,56.26
2023-03-26T02:46:55.918Z,56.63
2023-03-26T02:50:32.615Z,56.63
2023-03-26T02:53:53.848Z,56.39
2023-03-26T02:57:14.877Z,56.43
2023-03-26T03:00:35.839Z,56.67
2023-03-26T03:04:04.273Z,56.73
2023-03-26T03:07:14.393Z,56.90
2023-03-26T03:10:16.812Z,56.71
2023-03-26T03:13:51.790Z,57.04
2023-03-26T03:17:00.210Z,56.99
2023-03-26T03:20:02.590Z,57.17
2023-03-26T03:23:05.928Z,57.09
2023-03-26T03:26:14.405Z,57.12
2023-03-26T03:29:18.678Z,57.11
2023-03-26T03:32:22.778Z,57.07
2023-03-26T03:35:30.337Z,57.18
2023-03-26T03:38:34.592Z,57.16
2023-03-26T03:41:36.980Z,57.30
2023-03-26T03:44:42.119Z,56.92
2023-03-26T03:47:56.829Z,57.11
2023-03-26T03:51:06.684Z,57.26
2023-03-26T03:54:20.885Z,57.32
2023-03-26T03:57:23.846Z,57.30
2023-03-26T04:00:41.664Z,57.12
2023-03-26T04:04:04.618Z,57.12
2023-03-26T04:07:31.265Z,57.38
2023-03-26T04:10:39.575Z,57.40
2023-03-26T04:13:48.125Z,57.47
2023-03-26T04:17:09.438Z,57.67
2023-03-26T04:20:16.410Z,57.70
2023-03-26T04:23:23.329Z,57.30
2023-03-26T04:26:32.547Z,57.82
2023-03-26T04:29:44.672Z,57.78
2023-03-26T04:36:01.660Z,57.90
2023-03-26T04:39:06.784Z,57.87
2023-03-26T04:42:30.337Z,57.63
2023-03-26T04:45:45.913Z,57.58
2023-03-26T04:48:51.965Z,57.92
2023-03-26T04:51:54.463Z,57.80
2023-03-26T04:55:28.195Z,57.63
2023-03-26T04:58:39.952Z,58.08
2023-03-26T05:01:46.014Z,57.92
2023-03-26T05:04:50.821Z,57.64
2023-03-26T05:07:54.054Z,57.48
2023-03-26T05:10:57.199Z,57.61
2023-03-26T05:14:06.552Z,57.49
2023-03-26T05:17:14.947Z,57.43
2023-03-26T05:20:22.820Z,57.13
2023-03-26T05:23:25.267Z,57.37
2023-03-26T05:26:37.678Z,57.31
2023-03-26T05:29:40.084Z,57.40
2023-03-26T05:32:44.015Z,57.48
2023-03-26T05:35:49.565Z,57.12
2023-03-26T05:38:52.398Z,57.20
2023-03-26T05:42:17.580Z,56.94
2023-03-26T05:45:52.507Z,56.71
2023-03-26T05:49:00.889Z,56.71
2023-03-26T05:52:07.241Z,56.90
2023-03-26T05:55:29.892Z,56.43
2023-03-26T05:58:52.070Z,56.56
2023-03-26T06:02:13.229Z,56.11
2023-03-26T06:05:37.428Z,56.21
2023-03-26T06:09:01.708Z,56.01
2023-03-26T06:12:06.235Z,56.21
2023-03-26T06:15:09.611Z,55.79
2023-03-26T06:18:33.736Z,55.83
2023-03-26T06:21:54.789Z,55.63
2023-03-26T06:25:01.060Z,55.52
2023-03-26T06:28:30.451Z,55.64
2023-03-26T06:31:41.362Z,55.38
2023-03-26T06:34:56.124Z,55.28
2023-03-26T06:37:58.893Z,54.60
2023-03-26T06:41:06.255Z,53.52
2023-03-26T06:44:29.044Z,53.29
2023-03-26T06:47:51.649Z,53.87
2023-03-26T06:51:12.698Z,53.07
2023-03-26T06:54:33.365Z,52.76
2023-03-26T06:57:55.205Z,52.85
2023-03-26T07:01:16.264Z,52.33
2023-03-26T07:04:37.788Z,51.17
2023-03-26T07:08:00.683Z,51.39
2023-03-26T07:11:20.786Z,50.61
2023-03-26T07:15:00.403Z,50.62
2023-03-26T07:18:29.220Z,49.85
2023-03-26T07:21:32.304Z,49.23
2023-03-26T07:24:44.213Z,49.51
2023-03-26T07:28:27.725Z,48.47
2023-03-26T07:32:08.020Z,48.69
2023-03-26T07:35:44.746Z,47.82
2023-03-26T07:39:26.125Z,47.59
2023-03-26T07:43:27.624Z,47.62
2023-03-26T07:46:37.246Z,46.43
2023-03-26T07:49:51.825Z,47.61
2023-03-26T07:53:17.738Z,48.15
2023-03-26T07:56:49.449Z,48.97
2023-03-26T08:00:31.099Z,48.83
2023-03-26T08:03:57.624Z,49.18
2023-03-26T08:07:52.861Z,49.17
2023-03-26T08:11:53.708Z,49.34
2023-03-26T08:15:32.876Z,49.58
2023-03-26T08:18:35.710Z,49.66
2023-03-26T08:22:00.012Z,49.04
2023-03-26T08:25:29.730Z,49.67
2023-03-26T08:28:40.587Z,49.67
2023-03-26T08:31:44.615Z,49.72
2023-03-26T08:34:47.135Z,49.82
2023-03-26T08:37:49.728Z,49.92
2023-03-26T08:41:07.350Z,49.95
2023-03-26T08:44:09.991Z,49.71
2023-03-26T08:47:27.538Z,49.71
2023-03-26T08:50:56.760Z,49.90
2023-03-26T08:54:31.664Z,49.70
2023-03-26T08:57:39.864Z,49.83
2023-03-26T09:01:07.131Z,49.60
2023-03-26T09:04:21.340Z,49.83
2023-03-26T09:07:38.997Z,49.98
2023-03-26T09:11:03.902Z,49.97
2023-03-26T09:14:24.470Z,49.90
2023-03-26T09:17:58.125Z,50.08
2023-03-26T09:21:25.797Z,50.07
2023-03-26T09:24:51.527Z,49.79
2023-03-26T09:28:21.947Z,49.00
2023-03-26T09:31:49.173Z,49.43
2023-03-26T09:35:03.799Z,49.83
2023-03-26T09:38:37.065Z,49.77
2023-03-26T09:41:49.934Z,50.07
2023-03-26T09:45:21.507Z,49.18
2023-03-26T09:48:45.910Z,49.44
2023-03-26T09:51:56.024Z,49.81
2023-03-26T09:55:04.064Z,49.80
2023-03-26T09:58:27.088Z,49.72
2023-03-26T10:01:44.831Z,49.88
2023-03-26T10:05:10.285Z,49.34
2023-03-26T10:08:32.329Z,49.84
2023-03-26T10:11:41.189Z,49.51
2023-03-26T10:15:00.937Z,49.66
2023-03-26T10:18:27.488Z,49.01
2023-03-26T10:22:10.616Z,49.81
2023-03-26T10:25:41.067Z,50.25
2023-03-26T10:29:03.641Z,50.42
2023-03-26T10:32:21.942Z,50.51
2023-03-26T10:35:27.349Z,50.19
2023-03-26T10:39:02.104Z,50.37
2023-03-26T10:42:30.818Z,50.38
2023-03-26T10:46:14.472Z,50.76
2023-03-26T10:49:26.008Z,50.83
2023-03-26T10:53:14.722Z,50.36
2023-03-26T10:56:27.806Z,50.56
2023-03-26T10:59:30.718Z,50.71
2023-03-26T11:02:41.072Z,50.68
2023-03-26T11:05:51.251Z,50.50
2023-03-26T11:09:12.404Z,50.58
2023-03-26T11:12:26.305Z,50.95
2023-03-26T11:15:46.868Z,50.78
2023-03-26T11:19:00.011Z,50.47
2023-03-26T11:22:27.583Z,51.04
2023-03-26T11:26:07.126Z,50.68
2023-03-26T11:29:32.145Z,51.01
2023-03-26T11:32:52.092Z,50.84
2023-03-26T11:35:58.074Z,51.03
2023-03-26T11:39:01.796Z,50.95
2023-03-26T11:42:11.194Z,50.94
2023-03-26T11:45:24.308Z,51.10
2023-03-26T11:48:34.206Z,50.87
2023-03-26T11:51:38.457Z,50.65
2023-03-26T11:54:40.863Z,51.05
2023-03-26T11:57:50.515Z,50.97
2023-03-26T12:00:54.361Z,51.19
2023-03-26T12:04:13.640Z,50.71
2023-03-26T12:07:21.139Z,50.92
2023-03-26T12:10:25.001Z,50.98
2023-03-26T12:13:42.006Z,50.94
2023-03-26T12:17:02.661Z,50.73
2023-03-26T12:20:25.082Z,50.75
2023-03-26T12:24:05.208Z,51.16
2023-03-26T12:27:50.928Z,51.02
2023-03-26T12:31:01.497Z,50.59
2023-03-26T12:34:07.782Z,51.13
2023-03-26T12:37:34.422Z,50.79
2023-03-26T12:40:39.366Z,51.07
2023-03-26T12:44:56.465Z,50.82
2023-03-26T12:47:58.585Z,50.61
2023-03-26T12:51:06.494Z,50.56
2023-03-26T12:54:23.770Z,50.57
2023-03-26T12:57:39.123Z,50.59
2023-03-26T13:01:20.045Z,50.90
2023-03-26T13:04:34.542Z,50.70
2023-03-26T13:08:01.900Z,50.64
2023-03-26T13:11:18.970Z,50.62
2023-03-26T13:14:21.664Z,50.78
2023-03-26T13:18:04.448Z,50.86
2023-03-26T13:21:31.872Z,50.62
2023-03-26T13:24:46.724Z,50.45
2023-03-26T13:28:10.959Z,50.59
2023-03-26T13:31:24.854Z,50.49
2023-03-26T13:34:50.458Z,50.59
2023-03-26T13:38:06.386Z,50.80
2023-03-26T13:41:45.820Z,50.82
2023-03-26T13:45:04.835Z,50.63
2023-03-26T13:48:16.909Z,50.71
2023-03-26T13:51:31.956Z,50.36
2023-03-26T13:54:47.235Z,50.79
2023-03-26T13:58:02.182Z,50.81
2023-03-26T14:01:11.126Z,50.73
2023-03-26T14:04:21.907Z,50.86
2023-03-26T14:07:28.310Z,50.72
2023-03-26T14:10:37.477Z,50.66
2023-03-26T14:13:52.057Z,50.89
2023-03-26T14:16:58.541Z,50.59
2023-03-26T14:20:24.158Z,50.96
2023-03-26T14:23:48.432Z,50.75
2023-03-26T14:27:08.961Z,50.96
2023-03-26T14:30:17.830Z,50.76
2023-03-26T14:33:45.000Z,50.70
2023-03-26T14:36:53.043Z,50.53
2023-03-26T14:40:16.883Z,50.68
2023-03-26T14:43:48.180Z,50.79
2023-03-26T14:46:53.390Z,50.74
2023-03-26T14:50:13.986Z,50.99
2023-03-26T14:53:25.769Z,50.91
2023-03-26T14:56:44.670Z,51.05
2023-03-26T15:00:05.983Z,50.75
2023-03-26T15:03:11.068Z,50.91
2023-03-26T15:06:25.338Z,50.88
2023-03-26T15:09:49.696Z,50.73
2023-03-26T15:13:16.504Z,50.79
2023-03-26T15:16:21.706Z,51.08
2023-03-26T15:19:36.773Z,51.06
2023-03-26T15:23:10.257Z,51.07
2023-03-26T15:26:37.125Z,50.76
2023-03-26T15:29:57.817Z,51.06
2023-03-26T15:33:36.582Z,50.94
2023-03-26T15:37:05.650Z,50.94
2023-03-26T15:40:26.105Z,50.87
2023-03-26T15:44:23.452Z,50.80
2023-03-26T15:47:49.082Z,50.80
2023-03-26T15:51:15.505Z,50.94
2023-03-26T15:54:54.114Z,51.10
2023-03-26T15:58:04.841Z,51.20
2023-03-26T16:01:37.273Z,50.89
2023-03-26T16:05:03.344Z,50.75
2023-03-26T16:08:18.962Z,50.78
2023-03-26T16:11:42.918Z,51.07
2023-03-26T16:14:48.116Z,51.05
2023-03-26T16:18:19.180Z,50.91
2023-03-26T16:21:36.779Z,51.37
2023-03-26T16:24:46.683Z,51.10
2023-03-26T16:28:06.506Z,51.28
2023-03-26T16:31:37.336Z,51.43
2023-03-26T16:34:48.256Z,51.31
2023-03-26T16:38:05.833Z,51.45
2023-03-26T16:41:19.692Z,51.34
2023-03-26T16:44:33.032Z,51.56
2023-03-26T16:47:43.224Z,51.63
2023-03-26T16:51:07.276Z,51.62
2023-03-26T16:54:24.196Z,51.69
2023-03-26T16:57:28.837Z,51.88
2023-03-26T17:01:27.436Z,51.56
2023-03-26T17:04:30.875Z,51.87
2023-03-26T17:07:38.489Z,52.01
2023-03-26T17:10:58.556Z,51.92
2023-03-26T17:14:16.162Z,52.13
2023-03-26T17:17:40.869Z,52.10
2023-03-26T17:21:08.875Z,52.00
2023-03-26T17:24:30.050Z,52.26
2023-03-26T17:28:29.462Z,52.18
2023-03-26T17:31:51.129Z,52.28
2023-03-26T17:35:02.317Z,52.66
2023-03-26T17:38:24.932Z,52.53
2023-03-26T17:41:55.418Z,52.70
2023-03-26T17:45:03.833Z,52.47
2023-03-26T17:48:21.847Z,52.55
2023-03-26T17:51:50.565Z,52.83
2023-03-26T17:54:55.861Z,52.73
2023-03-26T17:58:00.560Z,52.52
2023-03-26T18:01:07.565Z,52.71
2023-03-26T18:04:20.296Z,52.64
2023-03-26T18:07:26.104Z,52.70
2023-03-26T18:10:49.913Z,52.82
2023-03-26T18:14:29.090Z,53.04
2023-03-26T18:17:32.499Z,52.58
2023-03-26T18:20:37.202Z,52.61
2023-03-26T18:23:45.336Z,53.10
2023-03-26T18:26:54.254Z,53.01
2023-03-26T18:29:56.941Z,52.93
2023-03-26T18:33:13.755Z,52.99
2023-03-26T18:36:19.756Z,52.83
2023-03-26T18:39:22.317Z,53.03
2023-03-26T18:42:26.227Z,52.89
2023-03-26T18:45:34.049Z,53.12
2023-03-26T18:48:36.653Z,52.87
2023-03-26T18:51:50.168Z,52.86
2023-03-26T18:54:59.964Z,52.81
2023-03-26T18:58:19.370Z,53.02
2023-03-26T19:01:25.705Z,53.02
2023-03-26T19:04:31.381Z,53.23
2023-03-26T19:07:35.994Z,52.95
2023-03-26T19:10:38.783Z,53.16
2023-03-26T19:13:44.259Z,53.37
2023-03-26T19:16:50.801Z,53.04
2023-03-26T19:19:54.955Z,53.56
2023-03-26T19:23:00.341Z,53.30
2023-03-26T19:26:04.733Z,53.39
2023-03-26T19:29:07.448Z,53.35
2023-03-26T19:32:19.356Z,53.18
2023-03-26T19:35:23.487Z,53.11
2023-03-26T19:38:28.604Z,53.52
2023-03-26T19:41:35.258Z,53.38
2023-03-26T19:44:39.715Z,53.28
2023-03-26T19:51:06.538Z,53.52
2023-03-26T19:51:18.448Z,53.60
2023-03-26T19:54:15.888Z,53.49
2023-03-26T19:57:18.740Z,53.61
2023-03-26T20:00:21.959Z,53.11
2023-03-26T20:03:30.425Z,53.67
2023-03-26T20:06:43.644Z,53.59
2023-03-26T20:09:46.705Z,53.50
2023-03-26T20:12:54.844Z,53.21
2023-03-26T20:16:05.250Z,53.42
2023-03-26T20:19:08.864Z,53.67
2023-03-26T20:22:16.911Z,53.74
2023-03-26T20:25:26.098Z,53.68
2023-03-26T20:28:35.392Z,53.33
2023-03-26T20:31:45.956Z,53.58
2023-03-26T20:34:52.398Z,53.75
2023-03-26T20:37:54.864Z,53.82
2023-03-26T20:40:57.765Z,53.68
2023-03-26T20:44:00.511Z,53.42
2023-03-26T20:47:03.220Z,53.50
2023-03-26T20:50:06.490Z,53.77
2023-03-26T20:53:14.386Z,53.96
2023-03-26T20:56:19.108Z,53.43
2023-03-26T20:59:26.440Z,53.85
2023-03-26T21:02:29.346Z,53.66
2023-03-26T21:05:32.406Z,53.89
2023-03-26T21:08:34.977Z,53.58
2023-03-26T21:11:43.687Z,53.13
2023-03-26T21:14:46.740Z,53.67
2023-03-26T21:17:51.334Z,53.25
2023-03-26T21:21:14.113Z,53.38
2023-03-26T21:24:57.233Z,53.45
2023-03-26T21:28:17.357Z,53.46
2023-03-26T21:31:22.354Z,53.41
2023-03-26T21:34:25.086Z,53.56
2023-03-26T21:37:27.771Z,53.29
2023-03-26T21:40:30.806Z,53.49
2023-03-26T21:43:33.134Z,53.37
2023-03-26T21:46:36.183Z,53.35
2023-03-26T21:49:38.764Z,53.74
2023-03-26T21:52:47.269Z,53.50
2023-03-26T21:56:01.021Z,53.91
2023-03-26T21:59:18.512Z,53.66
2023-03-26T22:02:29.902Z,53.41
2023-03-26T22:05:55.673Z,53.56
2023-03-26T22:08:59.564Z,53.93
2023-03-26T22:12:02.131Z,53.65
2023-03-26T22:15:04.842Z,53.86
2023-03-26T22:18:07.429Z,53.67
2023-03-26T22:21:10.042Z,53.80
2023-03-26T22:24:12.413Z,53.91
2023-03-26T22:27:16.121Z,53.90
2023-03-26T22:30:20.707Z,53.82
2023-03-26T22:33:23.230Z,53.82
2023-03-26T22:36:25.673Z,53.82
2023-03-26T22:39:27.977Z,53.86
2023-03-26T22:42:30.354Z,54.38
2023-03-26T22:45:32.679Z,54.07
2023-03-26T22:48:35.051Z,53.89
2023-03-26T22:51:37.490Z,53.99
2023-03-26T22:54:39.869Z,53.85
2023-03-26T22:57:42.882Z,53.84
2023-03-26T23:00:46.201Z,54.34
2023-03-26T23:03:49.088Z,53.76
2023-03-26T23:06:51.531Z,53.87
2023-03-26T23:09:53.884Z,54.06
2023-03-26T23:12:56.436Z,53.87
2023-03-26T23:15:59.455Z,53.85
2023-03-26T23:19:01.831Z,54.31
2023-03-26T23:22:04.195Z,54.34
2023-03-26T23:25:07.471Z,54.38
2023-03-26T23:28:10.300Z,53.97
2023-03-26T23:31:13.207Z,54.13
2023-03-26T23:34:17.087Z,54.16
2023-03-26T23:37:23.193Z,54.41
2023-03-26T23:40:25.799Z,54.23
2023-03-26T23:43:28.772Z,54.71
2023-03-26T23:46:33.940Z,54.32
2023-03-26T23:49:39.234Z,54.09
2023-03-26T23:52:41.653Z,54.40
2023-03-26T23:55:48.229Z,54.32
2023-03-26T23:58:50.602Z,54.39
